sensor_id;sensor_type;location;lat;lon;timestamp;pressure;altitude;pressure_sealevel;temperature;humidity
64841;BME280;51307;52.162;7.560;2023-10-19T00:01:13;99106.50;;;9.70;82.08
64841;BME280;51307;52.162;7.560;2023-10-19T00:03:41;99098.44;;;9.63;82.60
64841;BME280;51307;52.162;7.560;2023-10-19T00:06:07;99103.75;;;9.56;83.10
64841;BME280;51307;52.162;7.560;2023-10-19T00:08:33;99102.78;;;9.64;82.71
64841;BME280;51307;52.162;7.560;2023-10-19T00:11:07;99090.25;;;9.65;82.54
64841;BME280;51307;52.162;7.560;2023-10-19T00:13:34;99098.06;;;9.66;83.05
64841;BME280;51307;52.162;7.560;2023-10-19T00:16:07;99097.19;;;9.59;83.41
64841;BME280;51307;52.162;7.560;2023-10-19T00:18:43;99090.31;;;9.71;83.04
64841;BME280;51307;52.162;7.560;2023-10-19T00:21:09;99079.81;;;9.41;83.71
64841;BME280;51307;52.162;7.560;2023-10-19T00:23:57;99090.88;;;9.67;83.26
64841;BME280;51307;52.162;7.560;2023-10-19T00:26:24;99092.50;;;9.61;83.37
64841;BME280;51307;52.162;7.560;2023-10-19T00:28:56;99094.97;;;9.63;84.35
64841;BME280;51307;52.162;7.560;2023-10-19T00:31:22;99091.31;;;9.70;83.82
64841;BME280;51307;52.162;7.560;2023-10-19T00:33:49;99082.28;;;9.71;83.72
64841;BME280;51307;52.162;7.560;2023-10-19T00:36:18;99080.78;;;9.62;84.35
64841;BME280;51307;52.162;7.560;2023-10-19T00:38:46;99074.63;;;9.62;84.51
64841;BME280;51307;52.162;7.560;2023-10-19T00:41:17;99064.13;;;9.60;84.89
64841;BME280;51307;52.162;7.560;2023-10-19T00:43:48;99068.47;;;9.61;84.75
64841;BME280;51307;52.162;7.560;2023-10-19T00:46:23;99053.47;;;9.32;86.33
64841;BME280;51307;52.162;7.560;2023-10-19T00:49:01;99055.88;;;9.55;85.52
64841;BME280;51307;52.162;7.560;2023-10-19T00:51:29;99050.50;;;9.48;85.69
64841;BME280;51307;52.162;7.560;2023-10-19T00:53:59;99041.03;;;9.46;86.64
64841;BME280;51307;52.162;7.560;2023-10-19T00:56:27;99036.00;;;9.29;87.31
64841;BME280;51307;52.162;7.560;2023-10-19T00:58:57;99041.47;;;9.49;86.37
64841;BME280;51307;52.162;7.560;2023-10-19T01:01:30;99038.44;;;9.59;86.35
64841;BME280;51307;52.162;7.560;2023-10-19T01:03:56;99029.41;;;9.60;86.18
64841;BME280;51307;52.162;7.560;2023-10-19T01:06:23;99029.81;;;9.57;86.78
64841;BME280;51307;52.162;7.560;2023-10-19T01:08:49;99034.34;;;9.63;86.35
64841;BME280;51307;52.162;7.560;2023-10-19T01:11:17;99032.88;;;9.54;86.89
64841;BME280;51307;52.162;7.560;2023-10-19T01:13:47;99026.19;;;9.65;86.49
64841;BME280;51307;52.162;7.560;2023-10-19T01:16:17;99019.75;;;9.59;87.02
64841;BME280;51307;52.162;7.560;2023-10-19T01:18:51;99023.59;;;9.50;87.26
64841;BME280;51307;52.162;7.560;2023-10-19T01:21:23;99015.06;;;9.61;86.98
64841;BME280;51307;52.162;7.560;2023-10-19T01:24:07;99012.84;;;9.36;87.96
64841;BME280;51307;52.162;7.560;2023-10-19T01:26:33;99010.69;;;9.53;87.64
64841;BME280;51307;52.162;7.560;2023-10-19T01:29:02;99009.50;;;9.63;87.12
64841;BME280;51307;52.162;7.560;2023-10-19T01:31:38;99005.75;;;9.50;87.88
64841;BME280;51307;52.162;7.560;2023-10-19T01:34:16;98997.84;;;9.29;89.54
64841;BME280;51307;52.162;7.560;2023-10-19T01:36:45;99001.97;;;9.31;89.14
64841;BME280;51307;52.162;7.560;2023-10-19T01:39:16;98997.00;;;9.70;87.33
64841;BME280;51307;52.162;7.560;2023-10-19T01:41:44;98996.59;;;9.66;87.27
64841;BME280;51307;52.162;7.560;2023-10-19T01:44:10;98985.88;;;9.59;87.95
64841;BME280;51307;52.162;7.560;2023-10-19T01:46:39;98993.22;;;9.51;88.33
64841;BME280;51307;52.162;7.560;2023-10-19T01:49:05;98985.47;;;9.63;88.14
64841;BME280;51307;52.162;7.560;2023-10-19T01:51:33;98978.69;;;9.60;88.31
64841;BME280;51307;52.162;7.560;2023-10-19T01:54:01;98978.09;;;9.65;88.01
64841;BME280;51307;52.162;7.560;2023-10-19T01:56:27;98986.25;;;9.56;88.60
64841;BME280;51307;52.162;7.560;2023-10-19T01:58:53;98979.44;;;9.40;89.91
64841;BME280;51307;52.162;7.560;2023-10-19T02:01:23;98976.38;;;9.50;89.71
64841;BME280;51307;52.162;7.560;2023-10-19T02:03:53;98973.53;;;9.52;89.25
64841;BME280;51307;52.162;7.560;2023-10-19T02:06:27;98969.66;;;9.61;88.95
64841;BME280;51307;52.162;7.560;2023-10-19T02:09:10;98963.69;;;9.59;88.86
64841;BME280;51307;52.162;7.560;2023-10-19T02:11:42;98953.88;;;9.66;88.91
64841;BME280;51307;52.162;7.560;2023-10-19T02:14:09;98960.47;;;9.70;88.47
64841;BME280;51307;52.162;7.560;2023-10-19T02:16:44;98951.75;;;9.55;89.27
64841;BME280;51307;52.162;7.560;2023-10-19T02:19:12;98951.75;;;9.55;89.84
64841;BME280;51307;52.162;7.560;2023-10-19T02:21:38;98952.59;;;9.55;89.93
64841;BME280;51307;52.162;7.560;2023-10-19T02:24:10;98950.16;;;9.67;89.62
64841;BME280;51307;52.162;7.560;2023-10-19T02:26:43;98943.41;;;9.71;89.21
64841;BME280;51307;52.162;7.560;2023-10-19T02:29:09;98933.97;;;9.69;89.39
64841;BME280;51307;52.162;7.560;2023-10-19T02:31:36;98926.31;;;9.59;90.31
64841;BME280;51307;52.162;7.560;2023-10-19T02:34:06;98935.41;;;9.71;89.31
64841;BME280;51307;52.162;7.560;2023-10-19T02:36:33;98930.25;;;9.76;89.51
64841;BME280;51307;52.162;7.560;2023-10-19T02:39:02;98914.84;;;9.72;90.22
64841;BME280;51307;52.162;7.560;2023-10-19T02:41:39;98920.63;;;9.75;89.69
64841;BME280;51307;52.162;7.560;2023-10-19T02:44:20;98928.59;;;9.62;90.82
64841;BME280;51307;52.162;7.560;2023-10-19T02:46:54;98932.09;;;9.69;90.80
64841;BME280;51307;52.162;7.560;2023-10-19T02:49:25;98924.28;;;9.61;91.50
64841;BME280;51307;52.162;7.560;2023-10-19T02:51:52;98922.66;;;9.73;90.84
64841;BME280;51307;52.162;7.560;2023-10-19T02:54:20;98935.38;;;9.65;91.15
64841;BME280;51307;52.162;7.560;2023-10-19T02:56:48;98940.91;;;9.70;91.43
64841;BME280;51307;52.162;7.560;2023-10-19T02:59:15;98913.84;;;9.73;91.01
64841;BME280;51307;52.162;7.560;2023-10-19T03:01:42;98926.81;;;9.83;90.92
64841;BME280;51307;52.162;7.560;2023-10-19T03:04:11;98933.38;;;9.80;91.25
64841;BME280;51307;52.162;7.560;2023-10-19T03:06:40;98920.81;;;9.81;91.33
64841;BME280;51307;52.162;7.560;2023-10-19T03:09:07;98908.09;;;9.83;91.25
64841;BME280;51307;52.162;7.560;2023-10-19T03:11:43;98898.00;;;9.78;91.60
64841;BME280;51307;52.162;7.560;2023-10-19T03:14:10;98912.81;;;9.87;91.10
64841;BME280;51307;52.162;7.560;2023-10-19T03:16:38;98909.56;;;9.85;91.34
64841;BME280;51307;52.162;7.560;2023-10-19T03:19:06;98907.69;;;9.86;91.34
64841;BME280;51307;52.162;7.560;2023-10-19T03:21:33;98905.66;;;9.88;91.25
64841;BME280;51307;52.162;7.560;2023-10-19T03:24:08;98895.78;;;9.82;91.52
64841;BME280;51307;52.162;7.560;2023-10-19T03:27:11;98893.09;;;9.82;91.72
64841;BME280;51307;52.162;7.560;2023-10-19T03:29:51;98887.19;;;9.93;91.49
64841;BME280;51307;52.162;7.560;2023-10-19T03:32:25;98899.66;;;9.79;92.37
64841;BME280;51307;52.162;7.560;2023-10-19T03:34:58;98890.00;;;9.78;92.60
64841;BME280;51307;52.162;7.560;2023-10-19T03:37:26;98888.00;;;9.93;91.74
64841;BME280;51307;52.162;7.560;2023-10-19T03:39:55;98884.91;;;9.97;92.10
64841;BME280;51307;52.162;7.560;2023-10-19T03:42:21;98896.19;;;9.79;93.11
64841;BME280;51307;52.162;7.560;2023-10-19T03:44:50;98888.41;;;9.97;91.83
64841;BME280;51307;52.162;7.560;2023-10-19T03:47:19;98883.09;;;10.04;91.24
64841;BME280;51307;52.162;7.560;2023-10-19T03:49:46;98897.88;;;9.93;92.55
64841;BME280;51307;52.162;7.560;2023-10-19T03:52:13;98885.53;;;9.99;92.13
64841;BME280;51307;52.162;7.560;2023-10-19T03:54:39;98891.91;;;10.04;92.10
64841;BME280;51307;52.162;7.560;2023-10-19T03:57:11;98885.09;;;9.95;92.26
64841;BME280;51307;52.162;7.560;2023-10-19T03:59:40;98876.50;;;9.93;92.88
64841;BME280;51307;52.162;7.560;2023-10-19T04:02:09;98873.22;;;10.04;92.13
64841;BME280;51307;52.162;7.560;2023-10-19T04:04:39;98868.50;;;10.06;92.19
64841;BME280;51307;52.162;7.560;2023-10-19T04:07:09;98873.22;;;10.04;92.92
64841;BME280;51307;52.162;7.560;2023-10-19T04:09:51;98860.25;;;10.01;92.55
64841;BME280;51307;52.162;7.560;2023-10-19T04:12:36;98865.41;;;10.09;92.30
64841;BME280;51307;52.162;7.560;2023-10-19T04:15:07;98865.16;;;9.91;93.80
64841;BME280;51307;52.162;7.560;2023-10-19T04:17:41;98866.00;;;10.05;92.89
64841;BME280;51307;52.162;7.560;2023-10-19T04:20:10;98850.41;;;10.08;92.81
64841;BME280;51307;52.162;7.560;2023-10-19T04:22:46;98854.94;;;10.15;92.19
64841;BME280;51307;52.162;7.560;2023-10-19T04:25:12;98856.56;;;10.09;92.34
64841;BME280;51307;52.162;7.560;2023-10-19T04:27:38;98845.47;;;10.19;92.09
64841;BME280;51307;52.162;7.560;2023-10-19T04:30:05;98842.59;;;10.14;92.73
64841;BME280;51307;52.162;7.560;2023-10-19T04:32:41;98852.06;;;10.16;92.25
64841;BME280;51307;52.162;7.560;2023-10-19T04:35:06;98847.13;;;10.13;93.06
64841;BME280;51307;52.162;7.560;2023-10-19T04:37:33;98843.41;;;10.21;92.31
64841;BME280;51307;52.162;7.560;2023-10-19T04:39:59;98844.41;;;10.20;92.87
64841;BME280;51307;52.162;7.560;2023-10-19T04:42:26;98852.25;;;10.15;93.14
64841;BME280;51307;52.162;7.560;2023-10-19T04:44:54;98838.06;;;10.21;92.99
64841;BME280;51307;52.162;7.560;2023-10-19T04:47:19;98835.16;;;10.09;94.10
64841;BME280;51307;52.162;7.560;2023-10-19T04:49:45;98845.06;;;10.22;93.26
64841;BME280;51307;52.162;7.560;2023-10-19T04:52:11;98840.34;;;10.24;92.87
64841;BME280;51307;52.162;7.560;2023-10-19T04:54:36;98842.59;;;10.27;92.97
64841;BME280;51307;52.162;7.560;2023-10-19T04:57:03;98851.22;;;10.22;93.58
64841;BME280;51307;52.162;7.560;2023-10-19T04:59:28;98840.94;;;10.19;94.17
64841;BME280;51307;52.162;7.560;2023-10-19T05:01:58;98842.16;;;10.17;94.49
64841;BME280;51307;52.162;7.560;2023-10-19T05:04:27;98846.69;;;10.23;94.14
64841;BME280;51307;52.162;7.560;2023-10-19T05:06:52;98842.59;;;10.27;93.97
64841;BME280;51307;52.162;7.560;2023-10-19T05:09:18;98847.09;;;10.20;94.70
64841;BME280;51307;52.162;7.560;2023-10-19T05:11:44;98843.41;;;10.27;94.47
64841;BME280;51307;52.162;7.560;2023-10-19T05:14:12;98837.03;;;10.22;94.77
64841;BME280;51307;52.162;7.560;2023-10-19T05:16:39;98837.84;;;10.29;94.35
64841;BME280;51307;52.162;7.560;2023-10-19T05:19:05;98831.06;;;10.33;94.54
64841;BME280;51307;52.162;7.560;2023-10-19T05:21:31;98828.00;;;10.36;94.49
64841;BME280;51307;52.162;7.560;2023-10-19T05:23:56;98828.59;;;10.38;94.59
64841;BME280;51307;52.162;7.560;2023-10-19T05:26:22;98827.56;;;10.26;95.31
64841;BME280;51307;52.162;7.560;2023-10-19T05:28:48;98827.78;;;10.38;94.94
64841;BME280;51307;52.162;7.560;2023-10-19T05:31:13;98814.63;;;10.43;94.10
64841;BME280;51307;52.162;7.560;2023-10-19T05:33:40;98814.81;;;10.41;94.38
64841;BME280;51307;52.162;7.560;2023-10-19T05:36:06;98811.75;;;10.31;95.46
64841;BME280;51307;52.162;7.560;2023-10-19T05:38:31;98821.63;;;10.37;95.28
64841;BME280;51307;52.162;7.560;2023-10-19T05:41:00;98825.72;;;10.33;95.01
64841;BME280;51307;52.162;7.560;2023-10-19T05:43:26;98830.25;;;10.39;94.60
64841;BME280;51307;52.162;7.560;2023-10-19T05:45:51;98834.78;;;10.32;95.59
64841;BME280;51307;52.162;7.560;2023-10-19T05:48:17;98839.72;;;10.35;94.95
64841;BME280;51307;52.162;7.560;2023-10-19T05:50:43;98841.34;;;10.36;95.43
64841;BME280;51307;52.162;7.560;2023-10-19T05:53:08;98850.59;;;10.40;95.42
64841;BME280;51307;52.162;7.560;2023-10-19T05:55:34;98849.59;;;10.41;95.13
64841;BME280;51307;52.162;7.560;2023-10-19T05:58:01;98848.53;;;10.42;95.43
64841;BME280;51307;52.162;7.560;2023-10-19T06:00:30;98853.69;;;10.51;94.75
64841;BME280;51307;52.162;7.560;2023-10-19T06:02:56;98860.31;;;10.48;94.62
64841;BME280;51307;52.162;7.560;2023-10-19T06:05:23;98863.16;;;10.53;94.82
64841;BME280;51307;52.162;7.560;2023-10-19T06:07:50;98867.69;;;10.53;95.13
64841;BME280;51307;52.162;7.560;2023-10-19T06:10:17;98865.22;;;10.51;94.87
64841;BME280;51307;52.162;7.560;2023-10-19T06:12:48;98866.66;;;10.54;94.93
64841;BME280;51307;52.162;7.560;2023-10-19T06:15:16;98861.31;;;10.47;95.61
64841;BME280;51307;52.162;7.560;2023-10-19T06:17:43;98859.03;;;10.51;96.04
64841;BME280;51307;52.162;7.560;2023-10-19T06:20:10;98868.09;;;10.56;95.21
64841;BME280;51307;52.162;7.560;2023-10-19T06:22:52;98861.31;;;10.54;95.40
64841;BME280;51307;52.162;7.560;2023-10-19T06:25:19;98864.00;;;10.54;95.37
64841;BME280;51307;52.162;7.560;2023-10-19T06:27:47;98861.69;;;10.44;96.33
64841;BME280;51307;52.162;7.560;2023-10-19T06:30:17;98868.69;;;10.58;95.14
64841;BME280;51307;52.162;7.560;2023-10-19T06:35:16;98878.38;;;10.53;96.09
64841;BME280;51307;52.162;7.560;2023-10-19T06:37:43;98883.72;;;10.59;95.63
64841;BME280;51307;52.162;7.560;2023-10-19T06:40:09;98882.91;;;10.66;95.82
64841;BME280;51307;52.162;7.560;2023-10-19T06:42:37;98870.78;;;10.63;95.92
64841;BME280;51307;52.162;7.560;2023-10-19T06:45:03;98893.78;;;10.64;95.44
64841;BME280;51307;52.162;7.560;2023-10-19T06:47:29;98889.50;;;10.70;95.25
64841;BME280;51307;52.162;7.560;2023-10-19T06:49:55;98888.44;;;10.71;95.16
64841;BME280;51307;52.162;7.560;2023-10-19T06:52:21;98893.78;;;10.71;95.22
64841;BME280;51307;52.162;7.560;2023-10-19T06:54:47;98893.19;;;10.69;95.44
64841;BME280;51307;52.162;7.560;2023-10-19T06:57:12;98878.56;;;10.71;95.81
64841;BME280;51307;52.162;7.560;2023-10-19T06:59:38;98881.63;;;10.75;95.58
64841;BME280;51307;52.162;7.560;2023-10-19T07:02:04;98888.84;;;10.74;95.99
64841;BME280;51307;52.162;7.560;2023-10-19T07:04:33;98886.19;;;10.74;96.04
64841;BME280;51307;52.162;7.560;2023-10-19T07:06:58;98883.69;;;10.80;95.79
64841;BME280;51307;52.162;7.560;2023-10-19T07:09:24;98882.47;;;10.82;96.33
64841;BME280;51307;52.162;7.560;2023-10-19T07:11:50;98886.97;;;10.88;96.01
64841;BME280;51307;52.162;7.560;2023-10-19T07:14:19;98883.06;;;10.91;96.06
64841;BME280;51307;52.162;7.560;2023-10-19T07:16:44;98892.94;;;10.84;96.29
64841;BME280;51307;52.162;7.560;2023-10-19T07:19:10;98896.22;;;10.86;96.48
64841;BME280;51307;52.162;7.560;2023-10-19T07:21:35;98895.19;;;10.93;96.04
64841;BME280;51307;52.162;7.560;2023-10-19T07:24:03;98906.31;;;10.97;96.10
64841;BME280;51307;52.162;7.560;2023-10-19T07:26:31;98908.78;;;10.92;96.42
64841;BME280;51307;52.162;7.560;2023-10-19T07:28:59;98905.28;;;10.91;96.63
64841;BME280;51307;52.162;7.560;2023-10-19T07:31:25;98905.50;;;10.97;96.19
64841;BME280;51307;52.162;7.560;2023-10-19T07:33:53;98901.16;;;11.02;96.11
64841;BME280;51307;52.162;7.560;2023-10-19T07:36:22;98906.09;;;11.05;96.42
64841;BME280;51307;52.162;7.560;2023-10-19T07:38:50;98912.47;;;11.04;97.30
64841;BME280;51307;52.162;7.560;2023-10-19T07:41:17;98914.31;;;11.04;96.43
64841;BME280;51307;52.162;7.560;2023-10-19T07:43:42;98912.06;;;11.07;96.91
64841;BME280;51307;52.162;7.560;2023-10-19T07:46:12;98919.03;;;11.08;96.61
64841;BME280;51307;52.162;7.560;2023-10-19T07:48:37;98911.41;;;11.12;97.13
64841;BME280;51307;52.162;7.560;2023-10-19T07:51:03;98912.84;;;11.15;97.12
64841;BME280;51307;52.162;7.560;2023-10-19T07:53:29;98917.19;;;11.16;97.20
64841;BME280;51307;52.162;7.560;2023-10-19T07:55:55;98919.84;;;11.16;97.57
64841;BME280;51307;52.162;7.560;2023-10-19T07:58:22;98921.47;;;11.17;97.33
64841;BME280;51307;52.162;7.560;2023-10-19T08:00:48;98912.03;;;11.21;97.45
64841;BME280;51307;52.162;7.560;2023-10-19T08:03:14;98916.75;;;11.19;97.75
64841;BME280;51307;52.162;7.560;2023-10-19T08:05:41;98906.25;;;11.17;98.30
64841;BME280;51307;52.162;7.560;2023-10-19T08:08:07;98914.28;;;11.24;97.89
64841;BME280;51307;52.162;7.560;2023-10-19T08:10:32;98910.97;;;11.22;98.27
64841;BME280;51307;52.162;7.560;2023-10-19T08:12:59;98912.41;;;11.24;98.09
64841;BME280;51307;52.162;7.560;2023-10-19T08:15:27;98912.63;;;11.23;98.32
64841;BME280;51307;52.162;7.560;2023-10-19T08:17:55;98906.00;;;11.32;98.16
64841;BME280;51307;52.162;7.560;2023-10-19T08:20:21;98903.53;;;11.31;98.57
64841;BME280;51307;52.162;7.560;2023-10-19T08:22:54;98906.22;;;11.31;98.76
64841;BME280;51307;52.162;7.560;2023-10-19T08:25:23;98907.41;;;11.41;98.59
64841;BME280;51307;52.162;7.560;2023-10-19T08:27:49;98912.16;;;11.39;98.95
64841;BME280;51307;52.162;7.560;2023-10-19T08:30:22;98906.97;;;11.44;98.85
64841;BME280;51307;52.162;7.560;2023-10-19T08:32:49;98908.63;;;11.46;99.04
64841;BME280;51307;52.162;7.560;2023-10-19T08:35:19;98905.53;;;11.49;99.32
64841;BME280;51307;52.162;7.560;2023-10-19T08:37:53;98905.31;;;11.50;99.49
64841;BME280;51307;52.162;7.560;2023-10-19T08:40:19;98909.81;;;11.56;99.83
64841;BME280;51307;52.162;7.560;2023-10-19T08:42:47;98913.31;;;11.57;99.68
64841;BME280;51307;52.162;7.560;2023-10-19T08:45:14;98911.25;;;11.59;100.00
64841;BME280;51307;52.162;7.560;2023-10-19T08:47:56;98907.50;;;11.67;100.00
64841;BME280;51307;52.162;7.560;2023-10-19T08:50:24;98908.09;;;11.69;100.00
64841;BME280;51307;52.162;7.560;2023-10-19T08:52:53;98910.34;;;11.72;100.00
64841;BME280;51307;52.162;7.560;2023-10-19T08:55:19;98908.88;;;11.76;100.00
64841;BME280;51307;52.162;7.560;2023-10-19T08:57:47;98907.22;;;11.82;100.00
64841;BME280;51307;52.162;7.560;2023-10-19T09:00:14;98901.88;;;11.88;100.00
64841;BME280;51307;52.162;7.560;2023-10-19T09:02:43;98908.03;;;11.82;100.00
64841;BME280;51307;52.162;7.560;2023-10-19T09:05:08;98904.31;;;11.90;100.00
64841;BME280;51307;52.162;7.560;2023-10-19T09:07:34;98896.28;;;11.90;100.00
64841;BME280;51307;52.162;7.560;2023-10-19T09:10:00;98911.91;;;11.93;100.00
64841;BME280;51307;52.162;7.560;2023-10-19T09:12:31;98905.94;;;11.98;100.00
64841;BME280;51307;52.162;7.560;2023-10-19T09:14:56;98904.06;;;11.98;100.00
64841;BME280;51307;52.162;7.560;2023-10-19T09:17:28;98895.22;;;11.98;100.00
64841;BME280;51307;52.162;7.560;2023-10-19T09:19:54;98892.69;;;12.03;100.00
64841;BME280;51307;52.162;7.560;2023-10-19T09:22:22;98895.75;;;12.06;100.00
64841;BME280;51307;52.162;7.560;2023-10-19T09:24:52;98890.19;;;12.08;100.00
64841;BME280;51307;52.162;7.560;2023-10-19T09:27:21;98885.81;;;12.14;100.00
64841;BME280;51307;52.162;7.560;2023-10-19T09:29:50;98887.66;;;12.13;100.00
64841;BME280;51307;52.162;7.560;2023-10-19T09:32:18;98900.84;;;12.15;100.00
64841;BME280;51307;52.162;7.560;2023-10-19T09:34:45;98898.56;;;12.18;100.00
64841;BME280;51307;52.162;7.560;2023-10-19T09:37:12;98902.22;;;12.24;100.00
64841;BME280;51307;52.162;7.560;2023-10-19T09:39:38;98893.97;;;12.25;100.00
64841;BME280;51307;52.162;7.560;2023-10-19T09:42:09;98885.06;;;12.32;100.00
64841;BME280;51307;52.162;7.560;2023-10-19T09:44:47;98883.38;;;12.37;100.00
64841;BME280;51307;52.162;7.560;2023-10-19T09:47:29;98881.66;;;12.43;100.00
64841;BME280;51307;52.162;7.560;2023-10-19T09:50:00;98887.63;;;12.45;100.00
64841;BME280;51307;52.162;7.560;2023-10-19T09:52:28;98885.75;;;12.45;100.00
64841;BME280;51307;52.162;7.560;2023-10-19T09:55:14;98889.22;;;12.53;100.00
64841;BME280;51307;52.162;7.560;2023-10-19T09:57:53;98878.22;;;12.61;100.00
64841;BME280;51307;52.162;7.560;2023-10-19T10:00:20;98877.16;;;12.62;100.00
64841;BME280;51307;52.162;7.560;2023-10-19T10:02:50;98875.84;;;12.71;100.00
64841;BME280;51307;52.162;7.560;2023-10-19T10:05:45;98881.75;;;12.80;100.00
64841;BME280;51307;52.162;7.560;2023-10-19T10:10:47;98865.75;;;12.92;100.00
64841;BME280;51307;52.162;7.560;2023-10-19T10:15:56;98886.47;;;13.03;100.00
64841;BME280;51307;52.162;7.560;2023-10-19T10:18:26;98885.41;;;13.04;100.00
64841;BME280;51307;52.162;7.560;2023-10-19T10:23:55;98877.84;;;13.20;100.00
64841;BME280;51307;52.162;7.560;2023-10-19T10:26:24;98869.34;;;13.23;100.00
64841;BME280;51307;52.162;7.560;2023-10-19T10:29:12;98880.00;;;13.30;100.00
64841;BME280;51307;52.162;7.560;2023-10-19T10:31:43;98864.69;;;13.30;100.00
64841;BME280;51307;52.162;7.560;2023-10-19T10:34:10;98867.88;;;13.39;100.00
64841;BME280;51307;52.162;7.560;2023-10-19T10:37:01;98864.81;;;13.54;100.00
64841;BME280;51307;52.162;7.560;2023-10-19T10:39:28;98871.16;;;13.59;100.00
64841;BME280;51307;52.162;7.560;2023-10-19T10:41:59;98871.38;;;13.58;100.00
64841;BME280;51307;52.162;7.560;2023-10-19T10:44:41;98870.47;;;13.64;100.00
64841;BME280;51307;52.162;7.560;2023-10-19T10:47:18;98870.59;;;13.69;100.00
64841;BME280;51307;52.162;7.560;2023-10-19T10:49:57;98861.63;;;13.75;100.00
64841;BME280;51307;52.162;7.560;2023-10-19T10:55:26;98851.69;;;13.76;100.00
64841;BME280;51307;52.162;7.560;2023-10-19T10:57:52;98860.13;;;13.79;100.00
64841;BME280;51307;52.162;7.560;2023-10-19T11:00:19;98861.88;;;13.86;100.00
64841;BME280;51307;52.162;7.560;2023-10-19T11:03:06;98862.81;;;13.79;100.00
64841;BME280;51307;52.162;7.560;2023-10-19T11:05:38;98866.44;;;13.85;100.00
64841;BME280;51307;52.162;7.560;2023-10-19T11:08:09;98858.97;;;13.87;100.00
64841;BME280;51307;52.162;7.560;2023-10-19T11:10:35;98863.28;;;13.88;100.00
64841;BME280;51307;52.162;7.560;2023-10-19T11:13:07;98857.13;;;13.88;100.00
64841;BME280;51307;52.162;7.560;2023-10-19T11:15:36;98858.53;;;13.90;100.00
64841;BME280;51307;52.162;7.560;2023-10-19T11:18:03;98872.53;;;13.92;100.00
64841;BME280;51307;52.162;7.560;2023-10-19T11:20:29;98860.50;;;13.95;100.00
64841;BME280;51307;52.162;7.560;2023-10-19T11:22:56;98871.03;;;13.96;100.00
64841;BME280;51307;52.162;7.560;2023-10-19T11:25:27;98880.56;;;14.11;100.00
64841;BME280;51307;52.162;7.560;2023-10-19T11:28:01;98876.53;;;14.02;100.00
64841;BME280;51307;52.162;7.560;2023-10-19T11:30:31;98870.84;;;14.10;100.00
64841;BME280;51307;52.162;7.560;2023-10-19T11:32:58;98871.91;;;14.21;100.00
64841;BME280;51307;52.162;7.560;2023-10-19T11:35:29;98859.28;;;14.21;100.00
64841;BME280;51307;52.162;7.560;2023-10-19T11:37:58;98862.13;;;14.26;100.00
64841;BME280;51307;52.162;7.560;2023-10-19T11:40:28;98850.88;;;14.29;100.00
64841;BME280;51307;52.162;7.560;2023-10-19T11:42:55;98852.66;;;14.36;100.00
64841;BME280;51307;52.162;7.560;2023-10-19T11:45:24;98852.09;;;14.45;100.00
64841;BME280;51307;52.162;7.560;2023-10-19T11:47:50;98838.16;;;14.49;100.00
64841;BME280;51307;52.162;7.560;2023-10-19T11:50:18;98837.34;;;14.60;100.00
64841;BME280;51307;52.162;7.560;2023-10-19T11:52:45;98835.38;;;14.67;100.00
64841;BME280;51307;52.162;7.560;2023-10-19T11:55:16;98841.78;;;14.78;100.00
64841;BME280;51307;52.162;7.560;2023-10-19T11:57:44;98836.59;;;14.88;100.00
64841;BME280;51307;52.162;7.560;2023-10-19T12:00:11;98824.09;;;14.94;100.00
64841;BME280;51307;52.162;7.560;2023-10-19T12:03:00;98819.28;;;14.96;100.00
64841;BME280;51307;52.162;7.560;2023-10-19T12:05:25;98814.81;;;15.02;98.34
64841;BME280;51307;52.162;7.560;2023-10-19T12:07:51;98823.13;;;15.00;98.21
64841;BME280;51307;52.162;7.560;2023-10-19T12:10:17;98828.63;;;15.05;98.25
64841;BME280;51307;52.162;7.560;2023-10-19T12:12:46;98824.75;;;15.13;98.55
64841;BME280;51307;52.162;7.560;2023-10-19T12:15:11;98822.84;;;15.13;98.64
64841;BME280;51307;52.162;7.560;2023-10-19T12:17:38;98825.19;;;15.22;97.31
64841;BME280;51307;52.162;7.560;2023-10-19T12:20:03;98825.38;;;15.32;96.41
64841;BME280;51307;52.162;7.560;2023-10-19T12:22:32;98822.94;;;15.30;96.47
64841;BME280;51307;52.162;7.560;2023-10-19T12:25:04;98815.91;;;15.29;96.69
64841;BME280;51307;52.162;7.560;2023-10-19T12:27:30;98810.66;;;15.23;96.37
64841;BME280;51307;52.162;7.560;2023-10-19T12:29:55;98802.91;;;15.26;95.38
64841;BME280;51307;52.162;7.560;2023-10-19T12:32:24;98805.75;;;15.20;95.32
64841;BME280;51307;52.162;7.560;2023-10-19T12:34:49;98797.44;;;15.21;95.51
64841;BME280;51307;52.162;7.560;2023-10-19T12:37:19;98796.63;;;15.21;95.89
64841;BME280;51307;52.162;7.560;2023-10-19T12:39:45;98792.53;;;15.18;96.28
64841;BME280;51307;52.162;7.560;2023-10-19T12:42:12;98789.59;;;15.20;95.89
64841;BME280;51307;52.162;7.560;2023-10-19T12:44:39;98794.38;;;15.18;97.47
64841;BME280;51307;52.162;7.560;2023-10-19T12:47:10;98790.16;;;15.22;97.98
64841;BME280;51307;52.162;7.560;2023-10-19T12:49:41;98778.69;;;15.26;97.49
64841;BME280;51307;52.162;7.560;2023-10-19T12:52:07;98783.81;;;15.28;98.10
64841;BME280;51307;52.162;7.560;2023-10-19T12:54:34;98785.22;;;15.30;98.51
64841;BME280;51307;52.162;7.560;2023-10-19T12:57:03;98786.63;;;15.33;97.84
64841;BME280;51307;52.162;7.560;2023-10-19T12:59:32;98782.13;;;15.39;97.18
64841;BME280;51307;52.162;7.560;2023-10-19T13:01:58;98786.50;;;15.40;97.05
64841;BME280;51307;52.162;7.560;2023-10-19T13:04:27;98783.66;;;15.46;96.52
64841;BME280;51307;52.162;7.560;2023-10-19T13:06:56;98786.91;;;15.49;96.90
64841;BME280;51307;52.162;7.560;2023-10-19T13:09:26;98781.63;;;15.54;97.81
64841;BME280;51307;52.162;7.560;2023-10-19T13:11:59;98764.88;;;15.52;97.02
64841;BME280;51307;52.162;7.560;2023-10-19T13:14:25;98769.28;;;15.58;96.37
64841;BME280;51307;52.162;7.560;2023-10-19T13:16:52;98772.00;;;15.58;96.65
64841;BME280;51307;52.162;7.560;2023-10-19T13:19:22;98767.09;;;15.55;96.77
64841;BME280;51307;52.162;7.560;2023-10-19T13:21:52;98760.66;;;15.56;96.82
64841;BME280;51307;52.162;7.560;2023-10-19T13:24:18;98756.31;;;15.55;96.47